sensor_id;sensor_type;location;lat;lon;timestamp;P1;durP1;ratioP1;P2;durP2;ratioP2
56114;SDS011;41988;53.020;6.576;2022-08-19T00:01:46;16.50;;;8.82;;
56114;SDS011;41988;53.020;6.576;2022-08-19T00:04:33;16.23;;;9.18;;
56114;SDS011;41988;53.020;6.576;2022-08-19T00:07:19;12.35;;;8.63;;
56114;SDS011;41988;53.020;6.576;2022-08-19T00:10:07;15.82;;;9.40;;
56114;SDS011;41988;53.020;6.576;2022-08-19T00:12:53;13.45;;;9.52;;
56114;SDS011;41988;53.020;6.576;2022-08-19T00:15:37;22.02;;;10.30;;
56114;SDS011;41988;53.020;6.576;2022-08-19T00:18:22;16.05;;;10.02;;
56114;SDS011;41988;53.020;6.576;2022-08-19T00:21:06;16.83;;;9.77;;
56114;SDS011;41988;53.020;6.576;2022-08-19T00:23:53;14.13;;;9.45;;
56114;SDS011;41988;53.020;6.576;2022-08-19T00:26:42;16.65;;;9.20;;
56114;SDS011;41988;53.020;6.576;2022-08-19T00:29:27;14.55;;;10.43;;
56114;SDS011;41988;53.020;6.576;2022-08-19T00:32:11;13.93;;;9.73;;
56114;SDS011;41988;53.020;6.576;2022-08-19T00:34:55;16.23;;;11.02;;
56114;SDS011;41988;53.020;6.576;2022-08-19T00:37:40;15.65;;;10.18;;
56114;SDS011;41988;53.020;6.576;2022-08-19T00:40:27;13.90;;;9.90;;
56114;SDS011;41988;53.020;6.576;2022-08-19T00:43:11;16.67;;;10.40;;
56114;SDS011;41988;53.020;6.576;2022-08-19T00:45:56;16.23;;;10.75;;
56114;SDS011;41988;53.020;6.576;2022-08-19T00:48:41;22.13;;;11.60;;
56114;SDS011;41988;53.020;6.576;2022-08-19T00:51:26;19.27;;;10.82;;
56114;SDS011;41988;53.020;6.576;2022-08-19T00:54:13;19.92;;;10.63;;
56114;SDS011;41988;53.020;6.576;2022-08-19T00:56:58;22.42;;;11.77;;
56114;SDS011;41988;53.020;6.576;2022-08-19T00:59:46;19.25;;;11.23;;
56114;SDS011;41988;53.020;6.576;2022-08-19T01:02:35;15.38;;;9.38;;
56114;SDS011;41988;53.020;6.576;2022-08-19T01:05:23;17.88;;;10.07;;
56114;SDS011;41988;53.020;6.576;2022-08-19T01:08:11;13.02;;;8.65;;
56114;SDS011;41988;53.020;6.576;2022-08-19T01:10:58;18.52;;;9.88;;
56114;SDS011;41988;53.020;6.576;2022-08-19T01:13:43;14.77;;;9.85;;
56114;SDS011;41988;53.020;6.576;2022-08-19T01:16:29;13.38;;;8.43;;
56114;SDS011;41988;53.020;6.576;2022-08-19T01:19:18;13.35;;;8.82;;
56114;SDS011;41988;53.020;6.576;2022-08-19T01:22:26;16.33;;;10.27;;
56114;SDS011;41988;53.020;6.576;2022-08-19T01:25:38;14.23;;;9.40;;
56114;SDS011;41988;53.020;6.576;2022-08-19T01:28:33;11.98;;;9.10;;
56114;SDS011;41988;53.020;6.576;2022-08-19T01:31:21;15.07;;;9.75;;
56114;SDS011;41988;53.020;6.576;2022-08-19T01:34:10;16.98;;;10.35;;
56114;SDS011;41988;53.020;6.576;2022-08-19T01:36:54;17.70;;;10.38;;
56114;SDS011;41988;53.020;6.576;2022-08-19T01:39:39;12.60;;;9.73;;
56114;SDS011;41988;53.020;6.576;2022-08-19T01:42:24;15.38;;;9.25;;
56114;SDS011;41988;53.020;6.576;2022-08-19T01:45:08;17.83;;;12.40;;
56114;SDS011;41988;53.020;6.576;2022-08-19T01:47:52;15.75;;;10.73;;
56114;SDS011;41988;53.020;6.576;2022-08-19T01:50:38;14.82;;;10.50;;
56114;SDS011;41988;53.020;6.576;2022-08-19T01:53:22;20.15;;;10.55;;
56114;SDS011;41988;53.020;6.576;2022-08-19T01:56:07;19.73;;;10.77;;
56114;SDS011;41988;53.020;6.576;2022-08-19T01:58:56;16.85;;;10.07;;
56114;SDS011;41988;53.020;6.576;2022-08-19T02:01:43;18.17;;;11.23;;
56114;SDS011;41988;53.020;6.576;2022-08-19T02:04:28;18.77;;;10.60;;
56114;SDS011;41988;53.020;6.576;2022-08-19T02:07:12;12.48;;;9.45;;
56114;SDS011;41988;53.020;6.576;2022-08-19T02:09:56;14.10;;;9.68;;
56114;SDS011;41988;53.020;6.576;2022-08-19T02:12:41;15.68;;;9.18;;
56114;SDS011;41988;53.020;6.576;2022-08-19T02:15:25;13.05;;;9.98;;
56114;SDS011;41988;53.020;6.576;2022-08-19T02:18:09;15.52;;;9.60;;
56114;SDS011;41988;53.020;6.576;2022-08-19T02:20:53;17.42;;;10.30;;
56114;SDS011;41988;53.020;6.576;2022-08-19T02:23:38;20.58;;;11.27;;
56114;SDS011;41988;53.020;6.576;2022-08-19T02:26:23;15.90;;;10.13;;
56114;SDS011;41988;53.020;6.576;2022-08-19T02:29:09;17.67;;;11.32;;
56114;SDS011;41988;53.020;6.576;2022-08-19T02:31:54;16.73;;;10.23;;
56114;SDS011;41988;53.020;6.576;2022-08-19T02:34:38;19.73;;;11.80;;
56114;SDS011;41988;53.020;6.576;2022-08-19T02:37:23;18.13;;;11.02;;
56114;SDS011;41988;53.020;6.576;2022-08-19T02:40:27;18.57;;;10.50;;
56114;SDS011;41988;53.020;6.576;2022-08-19T02:43:13;16.45;;;10.38;;
56114;SDS011;41988;53.020;6.576;2022-08-19T02:45:57;16.52;;;10.13;;
56114;SDS011;41988;53.020;6.576;2022-08-19T02:48:41;19.70;;;10.25;;
56114;SDS011;41988;53.020;6.576;2022-08-19T02:51:30;20.92;;;11.95;;
56114;SDS011;41988;53.020;6.576;2022-08-19T02:54:19;16.00;;;10.52;;
56114;SDS011;41988;53.020;6.576;2022-08-19T02:57:03;15.35;;;10.93;;
56114;SDS011;41988;53.020;6.576;2022-08-19T02:59:49;18.85;;;11.63;;
56114;SDS011;41988;53.020;6.576;2022-08-19T03:02:34;15.93;;;9.90;;
56114;SDS011;41988;53.020;6.576;2022-08-19T03:05:18;16.98;;;11.27;;
56114;SDS011;41988;53.020;6.576;2022-08-19T03:08:02;18.70;;;11.02;;
56114;SDS011;41988;53.020;6.576;2022-08-19T03:10:47;22.23;;;12.40;;
56114;SDS011;41988;53.020;6.576;2022-08-19T03:13:31;17.02;;;11.00;;
56114;SDS011;41988;53.020;6.576;2022-08-19T03:16:20;14.32;;;9.80;;
56114;SDS011;41988;53.020;6.576;2022-08-19T03:19:06;19.60;;;11.02;;
56114;SDS011;41988;53.020;6.576;2022-08-19T03:21:50;16.67;;;10.07;;
56114;SDS011;41988;53.020;6.576;2022-08-19T03:24:35;16.42;;;10.35;;
56114;SDS011;41988;53.020;6.576;2022-08-19T03:27:20;16.52;;;10.43;;
56114;SDS011;41988;53.020;6.576;2022-08-19T03:30:06;15.88;;;10.55;;
56114;SDS011;41988;53.020;6.576;2022-08-19T03:32:50;16.90;;;10.93;;
56114;SDS011;41988;53.020;6.576;2022-08-19T03:35:36;17.30;;;11.30;;
56114;SDS011;41988;53.020;6.576;2022-08-19T03:38:20;16.80;;;11.55;;
56114;SDS011;41988;53.020;6.576;2022-08-19T03:41:05;19.45;;;11.23;;
56114;SDS011;41988;53.020;6.576;2022-08-19T03:43:52;17.45;;;11.30;;
56114;SDS011;41988;53.020;6.576;2022-08-19T03:46:37;18.70;;;12.20;;
56114;SDS011;41988;53.020;6.576;2022-08-19T03:49:22;21.73;;;13.60;;
56114;SDS011;41988;53.020;6.576;2022-08-19T03:52:08;25.15;;;14.05;;
56114;SDS011;41988;53.020;6.576;2022-08-19T03:54:53;25.80;;;13.93;;
56114;SDS011;41988;53.020;6.576;2022-08-19T03:57:37;23.33;;;13.93;;
56114;SDS011;41988;53.020;6.576;2022-08-19T04:00:21;31.67;;;14.82;;
56114;SDS011;41988;53.020;6.576;2022-08-19T04:03:05;26.85;;;14.65;;
56114;SDS011;41988;53.020;6.576;2022-08-19T04:05:49;27.35;;;14.98;;
56114;SDS011;41988;53.020;6.576;2022-08-19T04:08:34;23.33;;;13.60;;
56114;SDS011;41988;53.020;6.576;2022-08-19T04:11:20;21.77;;;12.93;;
56114;SDS011;41988;53.020;6.576;2022-08-19T04:14:12;24.33;;;12.77;;
56114;SDS011;41988;53.020;6.576;2022-08-19T04:17:02;21.00;;;12.43;;
56114;SDS011;41988;53.020;6.576;2022-08-19T04:19:48;26.65;;;13.70;;
56114;SDS011;41988;53.020;6.576;2022-08-19T04:22:32;22.85;;;13.35;;
56114;SDS011;41988;53.020;6.576;2022-08-19T04:25:16;23.60;;;12.82;;
56114;SDS011;41988;53.020;6.576;2022-08-19T04:28:00;30.67;;;14.65;;
56114;SDS011;41988;53.020;6.576;2022-08-19T04:30:46;29.63;;;14.50;;
56114;SDS011;41988;53.020;6.576;2022-08-19T04:33:32;27.45;;;14.57;;
56114;SDS011;41988;53.020;6.576;2022-08-19T04:36:17;26.08;;;14.45;;
56114;SDS011;41988;53.020;6.576;2022-08-19T04:39:06;29.67;;;14.88;;
56114;SDS011;41988;53.020;6.576;2022-08-19T04:41:52;29.95;;;15.52;;
56114;SDS011;41988;53.020;6.576;2022-08-19T04:44:55;26.02;;;14.65;;
56114;SDS011;41988;53.020;6.576;2022-08-19T04:47:42;26.73;;;14.60;;
56114;SDS011;41988;53.020;6.576;2022-08-19T04:50:28;24.13;;;14.43;;
56114;SDS011;41988;53.020;6.576;2022-08-19T04:53:12;27.08;;;15.13;;
56114;SDS011;41988;53.020;6.576;2022-08-19T04:55:57;23.25;;;13.93;;
56114;SDS011;41988;53.020;6.576;2022-08-19T04:58:44;25.60;;;13.73;;
56114;SDS011;41988;53.020;6.576;2022-08-19T05:01:28;25.63;;;14.13;;
56114;SDS011;41988;53.020;6.576;2022-08-19T05:04:13;31.20;;;14.77;;
56114;SDS011;41988;53.020;6.576;2022-08-19T05:06:59;25.15;;;13.82;;
56114;SDS011;41988;53.020;6.576;2022-08-19T05:09:44;20.80;;;12.82;;
56114;SDS011;41988;53.020;6.576;2022-08-19T05:12:28;20.15;;;12.68;;
56114;SDS011;41988;53.020;6.576;2022-08-19T05:15:12;19.23;;;13.15;;
56114;SDS011;41988;53.020;6.576;2022-08-19T05:17:56;26.70;;;14.30;;
56114;SDS011;41988;53.020;6.576;2022-08-19T05:21:01;26.30;;;14.43;;
56114;SDS011;41988;53.020;6.576;2022-08-19T05:24:09;27.10;;;14.73;;
56114;SDS011;41988;53.020;6.576;2022-08-19T05:26:54;33.92;;;16.48;;
56114;SDS011;41988;53.020;6.576;2022-08-19T05:29:42;33.05;;;17.17;;
56114;SDS011;41988;53.020;6.576;2022-08-19T05:32:26;34.08;;;16.25;;
56114;SDS011;41988;53.020;6.576;2022-08-19T05:35:10;28.95;;;15.45;;
56114;SDS011;41988;53.020;6.576;2022-08-19T05:37:55;27.65;;;15.90;;
56114;SDS011;41988;53.020;6.576;2022-08-19T05:40:39;28.95;;;16.58;;
56114;SDS011;41988;53.020;6.576;2022-08-19T05:43:24;29.60;;;16.63;;
56114;SDS011;41988;53.020;6.576;2022-08-19T05:46:08;36.28;;;19.45;;
56114;SDS011;41988;53.020;6.576;2022-08-19T05:49:01;33.55;;;18.55;;
56114;SDS011;41988;53.020;6.576;2022-08-19T05:51:45;29.98;;;18.77;;
56114;SDS011;41988;53.020;6.576;2022-08-19T05:54:30;33.55;;;19.33;;
56114;SDS011;41988;53.020;6.576;2022-08-19T05:57:14;30.02;;;18.30;;
56114;SDS011;41988;53.020;6.576;2022-08-19T05:59:59;33.33;;;19.60;;
56114;SDS011;41988;53.020;6.576;2022-08-19T06:02:45;29.45;;;17.98;;
56114;SDS011;41988;53.020;6.576;2022-08-19T06:05:30;27.98;;;18.17;;
56114;SDS011;41988;53.020;6.576;2022-08-19T06:08:14;28.63;;;17.48;;
56114;SDS011;41988;53.020;6.576;2022-08-19T06:11:11;26.55;;;17.75;;
56114;SDS011;41988;53.020;6.576;2022-08-19T06:14:09;26.67;;;16.50;;
56114;SDS011;41988;53.020;6.576;2022-08-19T06:17:04;24.38;;;16.20;;
56114;SDS011;41988;53.020;6.576;2022-08-19T06:19:48;26.33;;;15.68;;
56114;SDS011;41988;53.020;6.576;2022-08-19T06:22:37;20.35;;;14.73;;
56114;SDS011;41988;53.020;6.576;2022-08-19T06:25:22;21.20;;;14.73;;
56114;SDS011;41988;53.020;6.576;2022-08-19T06:28:07;22.35;;;14.80;;
56114;SDS011;41988;53.020;6.576;2022-08-19T06:30:51;17.80;;;13.38;;
56114;SDS011;41988;53.020;6.576;2022-08-19T06:33:35;19.80;;;14.27;;
56114;SDS011;41988;53.020;6.576;2022-08-19T06:36:21;20.23;;;13.75;;
56114;SDS011;41988;53.020;6.576;2022-08-19T06:39:14;18.00;;;12.93;;
56114;SDS011;41988;53.020;6.576;2022-08-19T06:42:02;18.38;;;13.68;;
56114;SDS011;41988;53.020;6.576;2022-08-19T06:44:50;15.10;;;12.48;;
56114;SDS011;41988;53.020;6.576;2022-08-19T06:47:34;18.70;;;11.88;;
56114;SDS011;41988;53.020;6.576;2022-08-19T06:50:18;19.13;;;12.48;;
56114;SDS011;41988;53.020;6.576;2022-08-19T06:53:02;16.50;;;11.50;;
56114;SDS011;41988;53.020;6.576;2022-08-19T06:55:47;15.65;;;11.43;;
56114;SDS011;41988;53.020;6.576;2022-08-19T06:58:31;15.02;;;11.80;;
56114;SDS011;41988;53.020;6.576;2022-08-19T07:01:15;17.35;;;11.10;;
56114;SDS011;41988;53.020;6.576;2022-08-19T07:04:00;13.73;;;10.60;;
56114;SDS011;41988;53.020;6.576;2022-08-19T07:06:46;14.00;;;10.85;;
56114;SDS011;41988;53.020;6.576;2022-08-19T07:09:31;18.73;;;11.13;;
56114;SDS011;41988;53.020;6.576;2022-08-19T07:12:15;13.70;;;11.20;;
56114;SDS011;41988;53.020;6.576;2022-08-19T07:14:59;13.30;;;10.32;;
56114;SDS011;41988;53.020;6.576;2022-08-19T07:17:44;15.65;;;10.60;;
56114;SDS011;41988;53.020;6.576;2022-08-19T07:20:28;13.70;;;10.52;;
56114;SDS011;41988;53.020;6.576;2022-08-19T07:23:12;12.18;;;10.00;;
56114;SDS011;41988;53.020;6.576;2022-08-19T07:25:57;12.10;;;10.52;;
56114;SDS011;41988;53.020;6.576;2022-08-19T07:28:41;14.63;;;9.80;;
56114;SDS011;41988;53.020;6.576;2022-08-19T07:31:27;10.98;;;9.88;;
56114;SDS011;41988;53.020;6.576;2022-08-19T07:34:11;16.42;;;10.30;;
56114;SDS011;41988;53.020;6.576;2022-08-19T07:36:58;13.43;;;10.05;;
56114;SDS011;41988;53.020;6.576;2022-08-19T07:39:43;11.75;;;9.68;;
56114;SDS011;41988;53.020;6.576;2022-08-19T07:42:28;10.07;;;8.98;;
56114;SDS011;41988;53.020;6.576;2022-08-19T07:45:13;12.35;;;9.63;;
56114;SDS011;41988;53.020;6.576;2022-08-19T07:47:56;14.60;;;9.93;;
56114;SDS011;41988;53.020;6.576;2022-08-19T07:50:42;14.00;;;9.50;;
56114;SDS011;41988;53.020;6.576;2022-08-19T07:53:28;13.10;;;8.65;;
56114;SDS011;41988;53.020;6.576;2022-08-19T07:56:14;9.68;;;7.63;;
56114;SDS011;41988;53.020;6.576;2022-08-19T07:58:58;10.50;;;7.07;;
56114;SDS011;41988;53.020;6.576;2022-08-19T08:01:43;9.00;;;6.93;;
56114;SDS011;41988;53.020;6.576;2022-08-19T08:04:28;8.13;;;6.38;;
56114;SDS011;41988;53.020;6.576;2022-08-19T08:07:32;10.15;;;7.60;;
56114;SDS011;41988;53.020;6.576;2022-08-19T08:10:35;9.82;;;6.90;;
56114;SDS011;41988;53.020;6.576;2022-08-19T08:13:20;8.73;;;5.72;;
56114;SDS011;41988;53.020;6.576;2022-08-19T08:16:04;9.90;;;7.20;;
56114;SDS011;41988;53.020;6.576;2022-08-19T08:18:48;8.60;;;7.50;;
56114;SDS011;41988;53.020;6.576;2022-08-19T08:21:33;9.55;;;8.55;;
56114;SDS011;41988;53.020;6.576;2022-08-19T08:24:17;11.05;;;8.55;;
56114;SDS011;41988;53.020;6.576;2022-08-19T08:27:02;12.68;;;8.60;;
56114;SDS011;41988;53.020;6.576;2022-08-19T08:29:47;13.63;;;9.10;;
56114;SDS011;41988;53.020;6.576;2022-08-19T08:32:32;10.05;;;8.30;;
56114;SDS011;41988;53.020;6.576;2022-08-19T08:35:18;11.93;;;8.63;;
56114;SDS011;41988;53.020;6.576;2022-08-19T08:38:04;13.15;;;10.93;;
56114;SDS011;41988;53.020;6.576;2022-08-19T08:41:00;15.75;;;10.82;;
56114;SDS011;41988;53.020;6.576;2022-08-19T08:43:51;12.43;;;10.98;;
56114;SDS011;41988;53.020;6.576;2022-08-19T08:46:41;12.52;;;9.77;;
56114;SDS011;41988;53.020;6.576;2022-08-19T08:49:41;10.98;;;9.68;;
56114;SDS011;41988;53.020;6.576;2022-08-19T08:52:33;12.00;;;9.73;;
56114;SDS011;41988;53.020;6.576;2022-08-19T08:55:21;10.48;;;7.80;;
56114;SDS011;41988;53.020;6.576;2022-08-19T09:01:33;8.25;;;7.15;;
56114;SDS011;41988;53.020;6.576;2022-08-19T09:04:18;10.52;;;7.50;;
56114;SDS011;41988;53.020;6.576;2022-08-19T09:09:51;9.70;;;6.60;;
56114;SDS011;41988;53.020;6.576;2022-08-19T09:12:47;8.27;;;6.35;;
56114;SDS011;41988;53.020;6.576;2022-08-19T09:15:56;7.97;;;6.72;;
56114;SDS011;41988;53.020;6.576;2022-08-19T09:18:49;10.70;;;6.90;;
56114;SDS011;41988;53.020;6.576;2022-08-19T09:21:38;8.88;;;7.65;;
56114;SDS011;41988;53.020;6.576;2022-08-19T09:24:23;8.02;;;6.15;;
56114;SDS011;41988;53.020;6.576;2022-08-19T09:27:07;7.25;;;6.03;;
56114;SDS011;41988;53.020;6.576;2022-08-19T09:29:52;11.02;;;7.38;;
56114;SDS011;41988;53.020;6.576;2022-08-19T09:32:37;10.18;;;6.60;;
56114;SDS011;41988;53.020;6.576;2022-08-19T09:35:25;8.50;;;6.68;;
56114;SDS011;41988;53.020;6.576;2022-08-19T09:38:12;11.75;;;7.60;;
56114;SDS011;41988;53.020;6.576;2022-08-19T09:40:56;6.88;;;5.60;;
56114;SDS011;41988;53.020;6.576;2022-08-19T09:43:47;7.28;;;6.22;;
56114;SDS011;41988;53.020;6.576;2022-08-19T09:46:35;7.25;;;6.20;;
56114;SDS011;41988;53.020;6.576;2022-08-19T09:49:19;8.23;;;6.03;;
56114;SDS011;41988;53.020;6.576;2022-08-19T09:52:11;6.93;;;5.80;;
56114;SDS011;41988;53.020;6.576;2022-08-19T09:54:55;8.15;;;6.07;;
56114;SDS011;41988;53.020;6.576;2022-08-19T09:57:40;7.55;;;5.93;;
56114;SDS011;41988;53.020;6.576;2022-08-19T10:00:25;7.93;;;6.93;;
56114;SDS011;41988;53.020;6.576;2022-08-19T10:03:10;7.65;;;5.60;;
56114;SDS011;41988;53.020;6.576;2022-08-19T10:05:56;7.00;;;5.97;;
56114;SDS011;41988;53.020;6.576;2022-08-19T10:08:41;8.40;;;6.00;;
56114;SDS011;41988;53.020;6.576;2022-08-19T10:11:26;9.18;;;6.70;;
56114;SDS011;41988;53.020;6.576;2022-08-19T10:14:11;7.05;;;6.35;;
56114;SDS011;41988;53.020;6.576;2022-08-19T10:16:55;9.38;;;7.03;;
56114;SDS011;41988;53.020;6.576;2022-08-19T10:19:40;8.40;;;6.45;;
56114;SDS011;41988;53.020;6.576;2022-08-19T10:22:24;8.68;;;6.80;;
56114;SDS011;41988;53.020;6.576;2022-08-19T10:25:09;6.82;;;5.90;;
56114;SDS011;41988;53.020;6.576;2022-08-19T10:27:54;7.78;;;6.32;;
56114;SDS011;41988;53.020;6.576;2022-08-19T10:30:39;7.65;;;6.65;;
56114;SDS011;41988;53.020;6.576;2022-08-19T10:33:24;10.55;;;6.47;;
56114;SDS011;41988;53.020;6.576;2022-08-19T10:36:10;9.27;;;6.32;;
56114;SDS011;41988;53.020;6.576;2022-08-19T10:39:03;10.47;;;7.00;;
56114;SDS011;41988;53.020;6.576;2022-08-19T10:41:48;7.60;;;6.55;;
56114;SDS011;41988;53.020;6.576;2022-08-19T10:44:33;9.00;;;7.10;;
56114;SDS011;41988;53.020;6.576;2022-08-19T10:47:18;6.88;;;6.13;;
56114;SDS011;41988;53.020;6.576;2022-08-19T10:50:04;7.57;;;6.10;;
56114;SDS011;41988;53.020;6.576;2022-08-19T10:53:07;7.53;;;6.30;;
56114;SDS011;41988;53.020;6.576;2022-08-19T10:55:52;8.77;;;6.63;;
56114;SDS011;41988;53.020;6.576;2022-08-19T10:58:55;8.32;;;6.82;;
56114;SDS011;41988;53.020;6.576;2022-08-19T11:01:42;9.57;;;6.20;;
56114;SDS011;41988;53.020;6.576;2022-08-19T11:04:27;9.23;;;7.30;;
56114;SDS011;41988;53.020;6.576;2022-08-19T11:07:12;8.75;;;6.90;;
56114;SDS011;41988;53.020;6.576;2022-08-19T11:09:57;8.93;;;7.18;;
56114;SDS011;41988;53.020;6.576;2022-08-19T11:12:42;9.02;;;7.88;;
56114;SDS011;41988;53.020;6.576;2022-08-19T11:15:26;9.43;;;8.05;;
56114;SDS011;41988;53.020;6.576;2022-08-19T11:18:12;15.50;;;8.68;;
56114;SDS011;41988;53.020;6.576;2022-08-19T11:21:04;10.25;;;7.78;;
56114;SDS011;41988;53.020;6.576;2022-08-19T11:23:51;9.25;;;7.90;;
56114;SDS011;41988;53.020;6.576;2022-08-19T11:26:38;11.75;;;8.30;;
56114;SDS011;41988;53.020;6.576;2022-08-19T11:29:23;8.02;;;7.03;;
56114;SDS011;41988;53.020;6.576;2022-08-19T11:32:11;8.43;;;7.40;;
56114;SDS011;41988;53.020;6.576;2022-08-19T11:34:56;8.65;;;7.55;;
56114;SDS011;41988;53.020;6.576;2022-08-19T11:37:40;9.70;;;8.60;;
56114;SDS011;41988;53.020;6.576;2022-08-19T11:40:25;9.60;;;8.63;;
56114;SDS011;41988;53.020;6.576;2022-08-19T11:43:09;11.00;;;8.55;;
56114;SDS011;41988;53.020;6.576;2022-08-19T11:45:55;10.82;;;9.07;;
56114;SDS011;41988;53.020;6.576;2022-08-19T11:48:39;10.43;;;7.18;;
56114;SDS011;41988;53.020;6.576;2022-08-19T11:51:24;9.90;;;7.65;;
56114;SDS011;41988;53.020;6.576;2022-08-19T11:54:09;11.23;;;8.50;;
56114;SDS011;41988;53.020;6.576;2022-08-19T11:56:54;8.73;;;7.85;;
56114;SDS011;41988;53.020;6.576;2022-08-19T11:59:39;12.75;;;9.40;;
56114;SDS011;41988;53.020;6.576;2022-08-19T12:02:24;8.48;;;7.50;;
56114;SDS011;41988;53.020;6.576;2022-08-19T12:05:09;9.18;;;6.38;;
56114;SDS011;41988;53.020;6.576;2022-08-19T12:07:53;9.05;;;6.43;;
56114;SDS011;41988;53.020;6.576;2022-08-19T12:10:38;10.55;;;7.25;;
56114;SDS011;41988;53.020;6.576;2022-08-19T12:13:24;9.20;;;7.53;;
56114;SDS011;41988;53.020;6.576;2022-08-19T12:16:12;9.10;;;7.85;;
56114;SDS011;41988;53.020;6.576;2022-08-19T12:18:59;9.48;;;7.00;;
56114;SDS011;41988;53.020;6.576;2022-08-19T12:21:47;9.15;;;6.70;;
56114;SDS011;41988;53.020;6.576;2022-08-19T12:24:32;6.80;;;6.07;;
56114;SDS011;41988;53.020;6.576;2022-08-19T12:27:17;8.07;;;5.47;;
56114;SDS011;41988;53.020;6.576;2022-08-19T12:30:03;7.32;;;6.60;;
56114;SDS011;41988;53.020;6.576;2022-08-19T12:32:49;7.85;;;5.88;;
56114;SDS011;41988;53.020;6.576;2022-08-19T12:35:34;6.03;;;5.20;;
56114;SDS011;41988;53.020;6.576;2022-08-19T12:38:20;6.65;;;3.80;;
56114;SDS011;41988;53.020;6.576;2022-08-19T12:41:09;5.95;;;3.35;;
56114;SDS011;41988;53.020;6.576;2022-08-19T12:43:55;4.80;;;3.05;;
56114;SDS011;41988;53.020;6.576;2022-08-19T12:46:40;6.07;;;3.58;;
56114;SDS011;41988;53.020;6.576;2022-08-19T12:49:24;5.32;;;3.55;;
56114;SDS011;41988;53.020;6.576;2022-08-19T12:52:10;5.45;;;3.65;;
56114;SDS011;41988;53.020;6.576;2022-08-19T12:54:58;4.47;;;3.30;;
56114;SDS011;41988;53.020;6.576;2022-08-19T12:57:42;4.30;;;3.45;;
56114;SDS011;41988;53.020;6.576;2022-08-19T13:00:27;7.78;;;3.83;;
56114;SDS011;41988;53.020;6.576;2022-08-19T13:03:11;5.50;;;3.63;;
56114;SDS011;41988;53.020;6.576;2022-08-19T13:05:56;6.72;;;4.28;;
56114;SDS011;41988;53.020;6.576;2022-08-19T13:08:40;7.43;;;3.75;;
56114;SDS011;41988;53.020;6.576;2022-08-19T13:11:25;5.05;;;3.88;;
56114;SDS011;41988;53.020;6.576;2022-08-19T13:14:10;7.82;;;5.10;;
56114;SDS011;41988;53.020;6.576;2022-08-19T13:16:55;5.70;;;4.35;;
56114;SDS011;41988;53.020;6.576;2022-08-19T13:19:40;7.05;;;4.85;;
56114;SDS011;41988;53.020;6.576;2022-08-19T13:22:24;6.82;;;5.03;;
56114;SDS011;41988;53.020;6.576;2022-08-19T13:25:09;8.07;;;5.57;;
56114;SDS011;41988;53.020;6.576;2022-08-19T13:27:53;8.80;;;5.55;;
56114;SDS011;41988;53.020;6.576;2022-08-19T13:30:38;9.07;;;6.00;;
56114;SDS011;41988;53.020;6.576;2022-08-19T13:33:42;13.15;;;9.75;;
56114;SDS011;41988;53.020;6.576;2022-08-19T13:36:26;14.93;;;11.50;;
56114;SDS011;41988;53.020;6.576;2022-08-19T13:39:11;16.08;;;11.50;;
56114;SDS011;41988;53.020;6.576;2022-08-19T13:41:56;16.98;;;13.45;;
56114;SDS011;41988;53.020;6.576;2022-08-19T13:44:41;17.02;;;12.95;;
56114;SDS011;41988;53.020;6.576;2022-08-19T13:47:26;18.52;;;14.23;;
56114;SDS011;41988;53.020;6.576;2022-08-19T13:50:11;22.73;;;14.43;;
56114;SDS011;41988;53.020;6.576;2022-08-19T13:52:58;24.80;;;15.98;;
56114;SDS011;41988;53.020;6.576;2022-08-19T13:55:44;19.98;;;15.65;;
56114;SDS011;41988;53.020;6.576;2022-08-19T13:58:29;19.05;;;15.65;;
56114;SDS011;41988;53.020;6.576;2022-08-19T14:01:19;20.20;;;15.57;;
56114;SDS011;41988;53.020;6.576;2022-08-19T14:04:06;21.15;;;15.85;;
56114;SDS011;41988;53.020;6.576;2022-08-19T14:06:51;20.48;;;14.23;;
56114;SDS011;41988;53.020;6.576;2022-08-19T14:09:36;17.42;;;13.57;;
56114;SDS011;41988;53.020;6.576;2022-08-19T14:12:21;20.83;;;15.30;;
56114;SDS011;41988;53.020;6.576;2022-08-19T14:15:06;17.42;;;14.00;;
56114;SDS011;41988;53.020;6.576;2022-08-19T14:17:53;17.58;;;13.88;;
56114;SDS011;41988;53.020;6.576;2022-08-19T14:20:37;14.50;;;12.95;;
56114;SDS011;41988;53.020;6.576;2022-08-19T14:23:22;17.50;;;13.15;;
56114;SDS011;41988;53.020;6.576;2022-08-19T14:26:08;11.85;;;10.15;;
56114;SDS011;41988;53.020;6.576;2022-08-19T14:28:55;14.00;;;10.75;;
56114;SDS011;41988;53.020;6.576;2022-08-19T14:31:41;15.40;;;10.73;;
56114;SDS011;41988;53.020;6.576;2022-08-19T14:34:26;15.57;;;10.77;;
56114;SDS011;41988;53.020;6.576;2022-08-19T14:37:11;15.25;;;9.98;;
56114;SDS011;41988;53.020;6.576;2022-08-19T14:39:57;17.20;;;11.63;;
56114;SDS011;41988;53.020;6.576;2022-08-19T14:42:42;17.95;;;12.85;;
56114;SDS011;41988;53.020;6.576;2022-08-19T14:45:27;21.73;;;13.43;;
56114;SDS011;41988;53.020;6.576;2022-08-19T14:48:12;21.02;;;13.85;;
56114;SDS011;41988;53.020;6.576;2022-08-19T14:50:57;19.23;;;13.38;;
56114;SDS011;41988;53.020;6.576;2022-08-19T14:53:41;18.10;;;11.75;;
56114;SDS011;41988;53.020;6.576;2022-08-19T14:56:28;16.60;;;11.15;;
56114;SDS011;41988;53.020;6.576;2022-08-19T14:59:13;12.75;;;9.52;;
56114;SDS011;41988;53.020;6.576;2022-08-19T15:01:58;10.60;;;8.55;;
56114;SDS011;41988;53.020;6.576;2022-08-19T15:04:43;11.60;;;7.72;;
56114;SDS011;41988;53.020;6.576;2022-08-19T15:07:28;9.10;;;6.95;;
56114;SDS011;41988;53.020;6.576;2022-08-19T15:10:13;7.47;;;6.57;;
56114;SDS011;41988;53.020;6.576;2022-08-19T15:12:59;11.27;;;7.78;;
56114;SDS011;41988;53.020;6.576;2022-08-19T15:15:44;15.50;;;9.10;;
56114;SDS011;41988;53.020;6.576;2022-08-19T15:18:29;12.57;;;9.18;;
56114;SDS011;41988;53.020;6.576;2022-08-19T15:21:14;11.82;;;8.88;;
56114;SDS011;41988;53.020;6.576;2022-08-19T15:24:01;14.80;;;11.15;;
56114;SDS011;41988;53.020;6.576;2022-08-19T15:26:46;16.67;;;12.90;;
56114;SDS011;41988;53.020;6.576;2022-08-19T15:29:30;17.83;;;13.18;;
56114;SDS011;41988;53.020;6.576;2022-08-19T15:32:15;19.35;;;13.10;;
56114;SDS011;41988;53.020;6.576;2022-08-19T15:35:00;17.35;;;11.73;;
56114;SDS011;41988;53.020;6.576;2022-08-19T15:37:53;18.80;;;13.13;;
56114;SDS011;41988;53.020;6.576;2022-08-19T15:40:39;10.98;;;8.68;;
56114;SDS011;41988;53.020;6.576;2022-08-19T15:43:24;12.48;;;8.88;;
56114;SDS011;41988;53.020;6.576;2022-08-19T15:46:08;11.32;;;6.93;;
56114;SDS011;41988;53.020;6.576;2022-08-19T15:48:53;5.22;;;3.28;;
56114;SDS011;41988;53.020;6.576;2022-08-19T15:51:39;5.28;;;3.30;;
56114;SDS011;41988;53.020;6.576;2022-08-19T15:54:25;6.93;;;3.22;;
56114;SDS011;41988;53.020;6.576;2022-08-19T15:57:10;5.95;;;3.10;;
56114;SDS011;41988;53.020;6.576;2022-08-19T16:00:04;8.60;;;3.90;;
56114;SDS011;41988;53.020;6.576;2022-08-19T16:03:10;7.80;;;4.25;;
56114;SDS011;41988;53.020;6.576;2022-08-19T16:06:16;6.57;;;3.80;;
56114;SDS011;41988;53.020;6.576;2022-08-19T16:09:10;6.85;;;4.13;;
56114;SDS011;41988;53.020;6.576;2022-08-19T16:11:56;7.22;;;4.65;;
56114;SDS011;41988;53.020;6.576;2022-08-19T16:14:44;8.25;;;4.82;;
56114;SDS011;41988;53.020;6.576;2022-08-19T16:17:30;8.32;;;6.47;;
56114;SDS011;41988;53.020;6.576;2022-08-19T16:20:15;8.15;;;5.70;;
56114;SDS011;41988;53.020;6.576;2022-08-19T16:23:00;9.63;;;6.13;;
56114;SDS011;41988;53.020;6.576;2022-08-19T16:25:47;8.82;;;5.70;;
56114;SDS011;41988;53.020;6.576;2022-08-19T16:28:31;10.82;;;7.00;;
56114;SDS011;41988;53.020;6.576;2022-08-19T16:31:16;13.38;;;7.45;;